createdAt,value
2022-09-16T00:01:31.798Z,23.00
2022-09-16T00:04:00.173Z,23.10
2022-09-16T00:06:30.477Z,23.00
2022-09-16T00:09:01.530Z,23.00
2022-09-16T00:11:30.003Z,23.00
2022-09-16T00:13:58.433Z,22.90
2022-09-16T00:16:29.640Z,22.90
2022-09-16T00:19:00.845Z,22.80
2022-09-16T00:21:30.579Z,22.80
2022-09-16T00:23:59.430Z,22.80
2022-09-16T00:26:27.738Z,22.80
2022-09-16T00:28:56.158Z,22.80
2022-09-16T00:31:24.531Z,22.70
2022-09-16T00:33:54.206Z,22.70
2022-09-16T00:36:22.544Z,22.70
2022-09-16T00:38:52.858Z,22.60
2022-09-16T00:41:23.385Z,22.60
2022-09-16T00:43:55.179Z,22.60
2022-09-16T00:46:31.400Z,22.50
2022-09-16T00:49:05.958Z,22.40
2022-09-16T00:51:35.064Z,22.40
2022-09-16T00:54:06.313Z,22.30
2022-09-16T00:56:39.947Z,22.20
2022-09-16T00:59:12.106Z,22.20
2022-09-16T01:01:42.552Z,22.20
2022-09-16T01:04:18.269Z,22.20
2022-09-16T01:06:46.987Z,22.20
2022-09-16T01:09:15.485Z,22.40
2022-09-16T01:11:43.899Z,22.40
2022-09-16T01:14:30.105Z,22.40
2022-09-16T01:17:06.771Z,22.40
2022-09-16T01:19:54.185Z,22.40
2022-09-16T01:22:40.506Z,22.20
2022-09-16T01:25:21.596Z,22.10
2022-09-16T01:28:09.136Z,22.00
2022-09-16T01:30:50.850Z,22.00
2022-09-16T01:33:28.766Z,22.00
2022-09-16T01:36:08.651Z,21.90
2022-09-16T01:38:52.711Z,21.80
2022-09-16T01:41:29.277Z,21.80
2022-09-16T01:44:03.229Z,21.80
2022-09-16T01:46:42.492Z,21.70
2022-09-16T01:49:20.113Z,21.70
2022-09-16T01:51:54.655Z,21.70
2022-09-16T01:54:30.913Z,21.70
2022-09-16T01:57:05.576Z,21.70
2022-09-16T01:59:39.977Z,21.70
2022-09-16T02:02:14.557Z,21.60
2022-09-16T02:04:48.569Z,21.70
2022-09-16T02:07:20.607Z,21.70
2022-09-16T02:09:53.711Z,21.70
2022-09-16T02:12:27.265Z,21.60
2022-09-16T02:15:01.642Z,21.60
2022-09-16T02:17:35.967Z,21.70
2022-09-16T02:20:09.278Z,21.60
2022-09-16T02:22:41.258Z,21.60
2022-09-16T02:25:11.169Z,21.50
2022-09-16T02:27:42.068Z,21.50
2022-09-16T02:30:12.532Z,21.50
2022-09-16T02:32:47.283Z,21.40
2022-09-16T02:35:18.638Z,21.40
2022-09-16T02:37:51.476Z,21.30
2022-09-16T02:40:25.461Z,21.40
2022-09-16T02:42:54.281Z,21.40
2022-09-16T02:45:27.486Z,21.40
2022-09-16T02:48:04.420Z,21.40
2022-09-16T02:50:40.296Z,21.40
2022-09-16T02:53:17.840Z,21.40
2022-09-16T02:55:52.449Z,21.40
2022-09-16T02:58:21.075Z,21.40
2022-09-16T03:00:53.256Z,21.40
2022-09-16T03:03:23.785Z,21.40
2022-09-16T03:06:14.586Z,21.40
2022-09-16T03:08:45.388Z,21.40
2022-09-16T03:11:45.292Z,21.30
2022-09-16T03:14:31.512Z,21.20
2022-09-16T03:17:09.819Z,21.20
2022-09-16T03:19:49.887Z,21.20
2022-09-16T03:22:27.970Z,21.20
2022-09-16T03:25:06.327Z,21.10
2022-09-16T03:27:39.775Z,21.10
2022-09-16T03:30:11.633Z,21.10
2022-09-16T03:32:45.076Z,21.20
2022-09-16T03:35:18.331Z,21.20
2022-09-16T03:37:47.766Z,21.30
2022-09-16T03:40:19.533Z,21.40
2022-09-16T03:42:47.964Z,21.50
2022-09-16T03:45:19.389Z,21.50
2022-09-16T03:47:49.895Z,21.50
2022-09-16T03:50:22.414Z,21.50
2022-09-16T03:52:50.757Z,21.60
2022-09-16T03:55:19.176Z,21.60
2022-09-16T03:57:47.468Z,21.80
2022-09-16T04:00:16.612Z,21.80
2022-09-16T04:02:45.088Z,21.80
2022-09-16T04:05:13.496Z,21.70
2022-09-16T04:07:43.224Z,21.60
2022-09-16T04:10:12.541Z,21.50
2022-09-16T04:12:40.998Z,21.30
2022-09-16T04:15:10.036Z,21.20
2022-09-16T04:17:38.603Z,21.20
2022-09-16T04:20:08.704Z,21.00
2022-09-16T04:22:36.955Z,21.00
2022-09-16T04:25:07.626Z,20.80
2022-09-16T04:27:35.987Z,20.80
2022-09-16T04:30:04.648Z,20.80
2022-09-16T04:32:32.932Z,20.70
2022-09-16T04:35:01.227Z,20.70
2022-09-16T04:37:31.696Z,20.70
2022-09-16T04:40:04.505Z,20.60
2022-09-16T04:42:34.842Z,20.60
2022-09-16T04:45:03.511Z,20.60
2022-09-16T04:47:31.919Z,20.60
2022-09-16T04:50:00.247Z,20.70
2022-09-16T04:52:31.056Z,20.70
2022-09-16T04:54:59.688Z,20.80
2022-09-16T04:57:31.233Z,20.90
2022-09-16T05:00:00.902Z,20.90
2022-09-16T05:02:30.304Z,20.90
2022-09-16T05:04:58.634Z,21.00
2022-09-16T05:07:27.433Z,21.00
2022-09-16T05:09:55.968Z,21.10
2022-09-16T05:12:24.344Z,21.10
2022-09-16T05:14:52.692Z,21.20
2022-09-16T05:17:39.783Z,21.20
2022-09-16T05:20:11.079Z,21.20
2022-09-16T05:22:39.508Z,21.20
2022-09-16T05:25:08.362Z,21.20
2022-09-16T05:27:36.769Z,21.20
2022-09-16T05:30:05.773Z,21.20
2022-09-16T05:32:35.686Z,21.20
2022-09-16T05:35:04.065Z,21.20
2022-09-16T05:37:32.391Z,21.30
2022-09-16T05:40:00.835Z,21.30
2022-09-16T05:42:29.113Z,21.30
2022-09-16T05:44:57.464Z,21.40
2022-09-16T05:47:26.912Z,21.50
2022-09-16T05:49:56.589Z,21.60
2022-09-16T05:52:25.596Z,21.70
2022-09-16T05:54:53.977Z,21.80
2022-09-16T05:57:23.899Z,21.90
2022-09-16T05:59:52.281Z,22.10
2022-09-16T06:02:20.638Z,22.20
2022-09-16T06:04:49.395Z,22.40
2022-09-16T06:07:19.051Z,22.60
2022-09-16T06:09:47.627Z,23.10
2022-09-16T06:12:16.036Z,24.10
2022-09-16T06:14:44.428Z,25.10
2022-09-16T06:17:12.797Z,26.10
2022-09-16T06:19:41.153Z,26.60
2022-09-16T06:22:09.504Z,26.50
2022-09-16T06:24:39.196Z,26.20
2022-09-16T06:27:08.646Z,25.90
2022-09-16T06:29:36.991Z,25.80
2022-09-16T06:32:05.356Z,25.60
2022-09-16T06:34:33.710Z,25.70
2022-09-16T06:37:02.182Z,25.70
2022-09-16T06:39:30.477Z,25.70
2022-09-16T06:42:00.485Z,25.80
2022-09-16T06:44:42.589Z,25.90
2022-09-16T06:47:10.894Z,26.10
2022-09-16T06:49:39.293Z,26.20
2022-09-16T06:52:09.452Z,26.30
2022-09-16T06:54:37.829Z,26.40
2022-09-16T06:57:11.990Z,26.60
2022-09-16T06:59:40.671Z,26.70
2022-09-16T07:02:11.455Z,26.90
2022-09-16T07:04:39.870Z,27.00
2022-09-16T07:07:10.030Z,27.00
2022-09-16T07:09:38.760Z,27.20
2022-09-16T07:12:08.754Z,27.30
2022-09-16T07:14:37.193Z,27.40
2022-09-16T07:17:05.895Z,27.40
2022-09-16T07:19:34.262Z,27.60
2022-09-16T07:22:02.496Z,27.60
2022-09-16T07:24:31.152Z,27.70
2022-09-16T07:26:59.394Z,27.70
2022-09-16T07:29:29.240Z,27.70
2022-09-16T07:31:57.588Z,27.70
2022-09-16T07:34:26.009Z,27.70
2022-09-16T07:36:54.372Z,27.70
2022-09-16T07:39:22.891Z,27.80
2022-09-16T07:41:51.225Z,27.90
2022-09-16T07:44:21.110Z,27.90
2022-09-16T07:46:51.578Z,27.90
2022-09-16T07:49:20.291Z,27.90
2022-09-16T07:51:49.080Z,28.00
2022-09-16T07:54:19.928Z,28.00
2022-09-16T07:56:48.863Z,28.10
2022-09-16T07:59:19.665Z,28.20
2022-09-16T08:01:50.970Z,28.20
2022-09-16T08:04:20.778Z,28.20
2022-09-16T08:06:49.461Z,28.30
2022-09-16T08:12:08.056Z,28.30
2022-09-16T08:14:36.729Z,28.30
2022-09-16T08:17:07.587Z,28.20
2022-09-16T08:19:35.915Z,28.20
2022-09-16T08:22:04.245Z,28.40
2022-09-16T08:24:32.669Z,28.40
2022-09-16T08:27:00.924Z,28.40
2022-09-16T08:29:29.765Z,28.40
2022-09-16T08:31:58.216Z,28.20
2022-09-16T08:34:27.979Z,28.20
2022-09-16T08:36:56.344Z,28.20
2022-09-16T08:39:24.764Z,28.20
2022-09-16T08:42:10.773Z,28.20
2022-09-16T08:44:50.625Z,28.00
2022-09-16T08:47:28.945Z,27.90
2022-09-16T08:50:01.640Z,28.10
2022-09-16T08:52:32.235Z,28.10
2022-09-16T08:55:03.501Z,28.10
2022-09-16T08:57:35.480Z,28.10
2022-09-16T09:00:09.132Z,28.30
2022-09-16T09:05:20.173Z,27.90
2022-09-16T09:08:04.612Z,27.80
2022-09-16T09:10:40.240Z,27.80
2022-09-16T09:13:23.007Z,27.70
2022-09-16T09:16:13.996Z,28.10
2022-09-16T09:18:53.746Z,28.20
2022-09-16T09:21:30.999Z,28.10
2022-09-16T09:24:28.367Z,28.20
2022-09-16T09:27:01.016Z,28.20
2022-09-16T09:29:53.455Z,28.20
2022-09-16T09:32:38.230Z,28.10
2022-09-16T09:35:26.203Z,28.10
2022-09-16T09:38:20.402Z,28.20
2022-09-16T09:40:53.611Z,28.30
2022-09-16T09:43:29.287Z,28.50
2022-09-16T09:46:01.220Z,28.60
2022-09-16T09:48:36.172Z,28.60
2022-09-16T09:51:12.703Z,28.60
2022-09-16T09:53:46.795Z,28.70
2022-09-16T09:56:20.354Z,28.80
2022-09-16T09:58:59.483Z,28.70
2022-09-16T10:01:27.796Z,28.60
2022-09-16T10:03:57.903Z,28.60
2022-09-16T10:06:31.689Z,28.50
2022-09-16T10:09:01.601Z,28.30
2022-09-16T10:11:32.408Z,28.30
2022-09-16T10:14:02.930Z,28.30
2022-09-16T10:16:34.064Z,28.40
2022-09-16T10:19:05.170Z,28.30
2022-09-16T10:21:46.126Z,28.20
2022-09-16T10:24:37.350Z,28.20
2022-09-16T10:27:21.678Z,28.30
2022-09-16T10:30:03.568Z,28.10
2022-09-16T10:32:33.707Z,28.10
2022-09-16T10:35:08.550Z,28.20
2022-09-16T10:37:38.499Z,28.30
2022-09-16T10:40:18.486Z,28.30
2022-09-16T10:42:49.383Z,28.20
2022-09-16T10:45:24.244Z,28.20
2022-09-16T10:47:56.220Z,28.30
2022-09-16T10:50:25.159Z,28.20
2022-09-16T10:52:54.276Z,28.20
2022-09-16T10:55:27.721Z,28.40
2022-09-16T10:58:07.998Z,28.50
2022-09-16T11:00:45.901Z,28.50
2022-09-16T11:03:52.350Z,28.50
2022-09-16T11:06:33.101Z,28.40
2022-09-16T11:09:11.222Z,28.40
2022-09-16T11:11:52.971Z,28.40
2022-09-16T11:14:31.884Z,28.30
2022-09-16T11:17:14.031Z,28.30
2022-09-16T11:19:54.765Z,28.50
2022-09-16T11:22:30.785Z,28.50
2022-09-16T11:25:33.751Z,28.40
2022-09-16T11:28:19.515Z,28.40
2022-09-16T11:30:56.714Z,28.40
2022-09-16T11:33:33.752Z,28.40
2022-09-16T11:36:25.115Z,28.50
2022-09-16T11:39:05.367Z,28.50
2022-09-16T11:41:41.075Z,28.60
2022-09-16T11:44:28.166Z,28.60
2022-09-16T11:47:09.951Z,28.70
2022-09-16T11:50:05.202Z,28.70
2022-09-16T11:52:47.220Z,28.80
2022-09-16T11:55:27.035Z,28.80
2022-09-16T11:58:00.088Z,28.80
2022-09-16T12:00:32.588Z,28.80
2022-09-16T12:03:05.756Z,28.60
2022-09-16T12:05:40.844Z,28.50
2022-09-16T12:08:22.866Z,28.40
2022-09-16T12:10:55.613Z,28.40
2022-09-16T12:13:29.316Z,28.40
2022-09-16T12:16:03.800Z,28.40
2022-09-16T12:18:36.148Z,28.40
2022-09-16T12:21:10.208Z,28.30
2022-09-16T12:23:43.868Z,28.20
2022-09-16T12:26:19.012Z,28.20
2022-09-16T12:28:52.957Z,28.40
2022-09-16T12:31:27.415Z,28.50
2022-09-16T12:33:59.876Z,28.70
2022-09-16T12:36:31.593Z,28.80
2022-09-16T12:39:00.507Z,28.90
2022-09-16T12:41:50.550Z,28.90
2022-09-16T12:44:56.318Z,28.90
2022-09-16T12:47:41.405Z,29.00
2022-09-16T12:50:40.139Z,29.20
2022-09-16T12:53:49.585Z,29.20
2022-09-16T12:56:40.615Z,29.20
2022-09-16T12:59:34.364Z,29.10
2022-09-16T13:02:12.044Z,29.10
2022-09-16T13:04:46.236Z,29.40
2022-09-16T13:07:23.904Z,29.60
2022-09-16T13:10:02.444Z,29.70
2022-09-16T13:12:39.599Z,29.70
2022-09-16T13:15:23.316Z,29.80
2022-09-16T13:17:53.267Z,29.80
2022-09-16T13:20:30.203Z,29.80
2022-09-16T13:23:06.922Z,29.90
2022-09-16T13:25:45.153Z,30.00
2022-09-16T13:28:26.798Z,29.90
2022-09-16T13:30:56.188Z,30.00
2022-09-16T13:33:29.996Z,30.10
2022-09-16T13:36:31.568Z,30.00
2022-09-16T13:39:01.958Z,30.20
2022-09-16T13:41:36.200Z,30.20
2022-09-16T13:44:26.616Z,30.10
2022-09-16T13:46:55.192Z,30.10
2022-09-16T13:49:27.755Z,30.20
2022-09-16T13:51:57.481Z,30.30
2022-09-16T13:54:33.104Z,30.40
2022-09-16T13:57:22.833Z,30.50
2022-09-16T14:00:06.536Z,30.60
2022-09-16T14:02:50.940Z,30.60
2022-09-16T14:05:33.726Z,30.60
2022-09-16T14:08:13.025Z,30.60
2022-09-16T14:10:50.481Z,30.60
2022-09-16T14:13:21.644Z,30.60
2022-09-16T14:15:52.448Z,30.50
2022-09-16T14:18:25.183Z,30.50
2022-09-16T14:21:02.001Z,30.40
2022-09-16T14:23:33.476Z,30.20
2022-09-16T14:26:12.227Z,30.10
2022-09-16T14:28:41.107Z,30.20
2022-09-16T14:31:12.874Z,30.20
2022-09-16T14:33:45.149Z,30.20
2022-09-16T14:36:16.197Z,30.10
2022-09-16T14:38:49.364Z,30.00
2022-09-16T14:41:25.476Z,29.90
2022-09-16T14:43:55.237Z,29.90
2022-09-16T14:46:23.850Z,29.90
2022-09-16T14:48:52.281Z,29.80
2022-09-16T14:51:24.596Z,29.90
2022-09-16T14:54:12.621Z,29.90
2022-09-16T14:56:41.722Z,29.90
2022-09-16T14:59:13.365Z,29.80
2022-09-16T15:01:42.285Z,29.80
2022-09-16T15:04:15.720Z,29.80
2022-09-16T15:06:49.485Z,29.70
2022-09-16T15:09:25.547Z,29.60
2022-09-16T15:11:58.220Z,29.70
2022-09-16T15:14:27.837Z,29.60
2022-09-16T15:17:01.004Z,29.50
2022-09-16T15:19:34.467Z,29.50
2022-09-16T15:22:03.715Z,29.50
2022-09-16T15:24:35.989Z,29.50
2022-09-16T15:27:04.834Z,29.50
2022-09-16T15:29:35.353Z,29.40
2022-09-16T15:32:19.535Z,29.30
2022-09-16T15:34:49.694Z,29.20
2022-09-16T15:37:33.123Z,29.20
2022-09-16T15:40:38.320Z,29.20
2022-09-16T15:43:16.717Z,29.10
2022-09-16T15:45:57.377Z,29.00
2022-09-16T15:48:33.368Z,28.90
2022-09-16T15:51:06.063Z,28.80
2022-09-16T15:53:42.852Z,28.70
2022-09-16T15:56:23.475Z,28.70
2022-09-16T15:58:55.673Z,28.60
2022-09-16T16:01:43.336Z,28.60
2022-09-16T16:04:14.347Z,28.50
2022-09-16T16:06:52.115Z,28.50
2022-09-16T16:09:35.389Z,28.40
2022-09-16T16:12:07.651Z,28.30
2022-09-16T16:14:37.418Z,28.30
2022-09-16T16:17:13.192Z,28.20
2022-09-16T16:19:42.798Z,28.10
2022-09-16T16:22:11.913Z,28.00
2022-09-16T16:24:40.812Z,28.00
2022-09-16T16:27:10.871Z,27.90
2022-09-16T16:29:39.442Z,27.90
2022-09-16T16:32:09.871Z,27.80
2022-09-16T16:34:43.187Z,27.80
2022-09-16T16:37:27.915Z,27.70
2022-09-16T16:40:01.727Z,27.60
2022-09-16T16:42:31.645Z,27.50
2022-09-16T16:44:59.988Z,27.50
2022-09-16T16:47:28.285Z,27.30
2022-09-16T16:49:56.743Z,27.30
2022-09-16T16:52:25.032Z,27.20
2022-09-16T16:54:53.398Z,27.20
2022-09-16T16:57:21.711Z,27.10
2022-09-16T16:59:51.996Z,27.10
2022-09-16T17:02:20.417Z,27.00
2022-09-16T17:04:48.712Z,26.90
2022-09-16T17:07:32.503Z,26.90
2022-09-16T17:10:00.911Z,26.80
2022-09-16T17:12:29.217Z,26.70
2022-09-16T17:14:59.006Z,26.70
2022-09-16T17:17:31.403Z,26.60
2022-09-16T17:20:00.150Z,26.60
2022-09-16T17:22:28.504Z,26.50
2022-09-16T17:24:56.852Z,26.50
2022-09-16T17:27:27.783Z,26.40
2022-09-16T17:29:56.613Z,26.40
2022-09-16T17:32:26.767Z,26.40
2022-09-16T17:34:55.192Z,26.30
2022-09-16T17:37:23.518Z,26.30
2022-09-16T17:39:52.126Z,26.20
2022-09-16T17:42:20.551Z,26.20
2022-09-16T17:44:49.032Z,26.20
2022-09-16T17:47:17.323Z,26.10
2022-09-16T17:49:47.318Z,26.10
2022-09-16T17:52:15.751Z,26.10
2022-09-16T17:54:44.371Z,26.00
2022-09-16T17:57:12.724Z,26.00
2022-09-16T17:59:41.050Z,25.90
2022-09-16T18:02:10.487Z,25.80
2022-09-16T18:04:38.828Z,25.80
2022-09-16T18:07:08.698Z,25.80
2022-09-16T18:09:37.206Z,25.80
2022-09-16T18:12:05.739Z,25.70
2022-09-16T18:14:34.191Z,25.70
2022-09-16T18:17:02.721Z,25.70
2022-09-16T18:19:31.077Z,25.60
2022-09-16T18:21:59.361Z,25.60
2022-09-16T18:24:29.097Z,25.60
2022-09-16T18:26:57.443Z,25.60
2022-09-16T18:29:25.763Z,25.60
2022-09-16T18:31:55.641Z,25.60
2022-09-16T18:34:24.748Z,25.60
2022-09-16T18:36:52.983Z,25.60
2022-09-16T18:39:21.296Z,25.60
2022-09-16T18:41:50.969Z,25.50
2022-09-16T18:44:21.036Z,25.50
2022-09-16T18:46:49.488Z,25.50
2022-09-16T18:49:19.087Z,25.40
2022-09-16T18:51:51.569Z,25.40
2022-09-16T18:54:25.020Z,25.40
2022-09-16T18:56:56.639Z,25.40
2022-09-16T18:59:28.396Z,25.40
2022-09-16T19:01:58.900Z,25.40
2022-09-16T19:04:30.230Z,25.40
2022-09-16T19:07:05.980Z,25.40
2022-09-16T19:09:36.069Z,25.40
2022-09-16T19:12:06.855Z,25.40
2022-09-16T19:14:35.167Z,25.40
2022-09-16T19:17:03.838Z,25.40
2022-09-16T19:19:33.257Z,25.40
2022-09-16T19:22:05.575Z,25.40
2022-09-16T19:24:34.459Z,25.30
2022-09-16T19:27:02.928Z,25.30
2022-09-16T19:29:33.268Z,25.30
2022-09-16T19:32:01.764Z,25.30
2022-09-16T19:34:30.319Z,25.30
2022-09-16T19:36:58.633Z,25.30
2022-09-16T19:39:27.199Z,25.20
2022-09-16T19:41:55.576Z,25.20
2022-09-16T19:44:23.904Z,25.30
2022-09-16T19:46:53.945Z,25.20
2022-09-16T19:49:22.968Z,25.20
2022-09-16T19:51:52.608Z,25.20
2022-09-16T19:54:24.034Z,25.20
2022-09-16T19:56:52.510Z,25.20
2022-09-16T19:59:22.215Z,25.20
2022-09-16T20:01:50.932Z,25.20
2022-09-16T20:04:21.176Z,25.30
2022-09-16T20:06:50.325Z,25.30
2022-09-16T20:09:19.690Z,25.30
2022-09-16T20:11:49.460Z,25.30
2022-09-16T20:14:19.932Z,25.30
2022-09-16T20:16:49.505Z,25.30
2022-09-16T20:19:20.910Z,25.30
2022-09-16T20:21:49.530Z,25.30
2022-09-16T20:24:19.905Z,25.30
2022-09-16T20:26:49.358Z,25.30
2022-09-16T20:29:18.696Z,25.30
2022-09-16T20:31:48.018Z,25.30
2022-09-16T20:34:17.211Z,25.20
2022-09-16T20:36:47.419Z,25.30
2022-09-16T20:39:16.323Z,25.20
2022-09-16T20:41:45.755Z,25.20
2022-09-16T20:44:15.784Z,25.20
2022-09-16T20:46:44.661Z,25.20
2022-09-16T20:49:15.926Z,25.20
2022-09-16T20:51:46.492Z,25.10
2022-09-16T20:54:16.679Z,25.10
2022-09-16T20:56:46.731Z,25.10
2022-09-16T20:59:17.215Z,25.10
2022-09-16T21:01:46.203Z,25.00
2022-09-16T21:04:16.192Z,24.90
2022-09-16T21:06:46.637Z,24.90
2022-09-16T21:09:16.534Z,24.90
2022-09-16T21:11:45.523Z,24.90
2022-09-16T21:14:16.379Z,24.80
2022-09-16T21:16:47.111Z,24.80
2022-09-16T21:19:16.709Z,24.80
2022-09-16T21:21:47.795Z,24.80
2022-09-16T21:24:17.234Z,24.70
2022-09-16T21:26:46.794Z,24.70
2022-09-16T21:29:18.379Z,24.60
2022-09-16T21:31:47.278Z,24.60
2022-09-16T21:34:17.271Z,24.50
2022-09-16T21:36:48.236Z,24.50
2022-09-16T21:39:18.790Z,24.30
2022-09-16T21:41:49.473Z,24.20
2022-09-16T21:44:18.824Z,24.20
2022-09-16T21:46:48.057Z,24.10
2022-09-16T21:49:22.866Z,24.10
2022-09-16T21:51:54.479Z,24.10
2022-09-16T21:54:23.879Z,24.10
2022-09-16T21:56:52.772Z,23.90
2022-09-16T21:59:21.425Z,23.90
2022-09-16T22:01:51.257Z,23.90
2022-09-16T22:04:21.929Z,23.90
2022-09-16T22:06:54.049Z,23.80
2022-09-16T22:09:22.705Z,23.70
2022-09-16T22:11:51.521Z,23.60
2022-09-16T22:14:20.069Z,23.70
2022-09-16T22:16:49.468Z,23.70
2022-09-16T22:19:19.509Z,23.70
2022-09-16T22:21:49.962Z,23.70
2022-09-16T22:24:21.505Z,23.70
2022-09-16T22:26:51.617Z,23.60
2022-09-16T22:29:20.210Z,23.50
2022-09-16T22:31:48.830Z,23.40
2022-09-16T22:34:17.460Z,23.40
2022-09-16T22:36:45.922Z,23.40
2022-09-16T22:39:16.049Z,23.30
2022-09-16T22:41:45.848Z,23.30
2022-09-16T22:44:14.800Z,23.30
2022-09-16T22:46:45.160Z,23.30
2022-09-16T22:49:14.164Z,23.20
2022-09-16T22:51:42.720Z,23.20
2022-09-16T22:54:14.094Z,23.10
2022-09-16T22:56:43.376Z,23.00
2022-09-16T22:59:18.033Z,23.00
2022-09-16T23:01:46.741Z,22.90
2022-09-16T23:04:15.213Z,22.90
2022-09-16T23:06:43.605Z,22.80
2022-09-16T23:09:14.015Z,22.70
2022-09-16T23:11:42.368Z,22.60
2022-09-16T23:14:14.928Z,22.50
2022-09-16T23:16:43.201Z,22.40
2022-09-16T23:19:12.949Z,22.20
2022-09-16T23:21:41.960Z,22.20
2022-09-16T23:24:15.092Z,22.10
2022-09-16T23:26:43.672Z,22.00
2022-09-16T23:29:14.537Z,21.90
2022-09-16T23:31:45.023Z,21.90
2022-09-16T23:34:16.755Z,21.90
2022-09-16T23:36:46.025Z,21.70
2022-09-16T23:39:16.135Z,21.60
2022-09-16T23:41:46.229Z,21.50
2022-09-16T23:44:16.437Z,21.30
2022-09-16T23:46:45.388Z,21.30
2022-09-16T23:49:17.174Z,21.20
2022-09-16T23:51:45.546Z,21.20
2022-09-16T23:54:14.019Z,21.20
2022-09-16T23:56:43.344Z,21.00
2022-09-16T23:59:11.892Z,21.00
